sensor_id;sensor_type;location;lat;lon;timestamp;temperature;humidity
20147;DHT22;10234;50.856;15.716;2022-12-16T00:02:26;-6.50;99.90
20147;DHT22;10234;50.856;15.716;2022-12-16T00:12:16;-6.80;99.90
20147;DHT22;10234;50.856;15.716;2022-12-16T00:17:10;-6.80;99.90
20147;DHT22;10234;50.856;15.716;2022-12-16T00:22:06;-6.70;99.90
20147;DHT22;10234;50.856;15.716;2022-12-16T00:24:33;-6.60;99.90
20147;DHT22;10234;50.856;15.716;2022-12-16T00:26:59;-6.30;99.90
20147;DHT22;10234;50.856;15.716;2022-12-16T00:31:53;-2.90;99.90
20147;DHT22;10234;50.856;15.716;2022-12-16T00:39:16;-6.30;99.90
20147;DHT22;10234;50.856;15.716;2022-12-16T00:41:43;-6.40;99.90
20147;DHT22;10234;50.856;15.716;2022-12-16T00:44:12;-6.40;99.90
20147;DHT22;10234;50.856;15.716;2022-12-16T00:49:06;-5.90;99.90
20147;DHT22;10234;50.856;15.716;2022-12-16T00:53:59;-6.00;99.90
20147;DHT22;10234;50.856;15.716;2022-12-16T01:01:22;-6.30;99.90
20147;DHT22;10234;50.856;15.716;2022-12-16T01:06:17;-6.30;99.90
20147;DHT22;10234;50.856;15.716;2022-12-16T01:08:44;-5.40;99.90
20147;DHT22;10234;50.856;15.716;2022-12-16T01:16:08;-6.30;99.90
20147;DHT22;10234;50.856;15.716;2022-12-16T01:21:03;-6.20;99.90
20147;DHT22;10234;50.856;15.716;2022-12-16T01:25:59;-6.10;99.90
20147;DHT22;10234;50.856;15.716;2022-12-16T01:30:56;-6.10;99.90
20147;DHT22;10234;50.856;15.716;2022-12-16T01:35:58;-5.80;99.90
20147;DHT22;10234;50.856;15.716;2022-12-16T01:40:52;-6.10;99.90
20147;DHT22;10234;50.856;15.716;2022-12-16T01:43:23;-6.00;99.90
20147;DHT22;10234;50.856;15.716;2022-12-16T01:45:51;-6.00;99.90
20147;DHT22;10234;50.856;15.716;2022-12-16T01:48:26;-6.30;99.90
20147;DHT22;10234;50.856;15.716;2022-12-16T01:51:01;-3.60;99.90
20147;DHT22;10234;50.856;15.716;2022-12-16T01:53:29;-6.00;99.90
20147;DHT22;10234;50.856;15.716;2022-12-16T01:55:57;-6.10;99.90
20147;DHT22;10234;50.856;15.716;2022-12-16T01:58:27;-5.90;99.90
20147;DHT22;10234;50.856;15.716;2022-12-16T02:03:25;-5.90;99.90
20147;DHT22;10234;50.856;15.716;2022-12-16T02:05:53;-5.80;99.90
20147;DHT22;10234;50.856;15.716;2022-12-16T02:08:20;-6.10;99.90
20147;DHT22;10234;50.856;15.716;2022-12-16T02:16:13;-5.90;99.90
20147;DHT22;10234;50.856;15.716;2022-12-16T02:18:48;-5.90;99.90
20147;DHT22;10234;50.856;15.716;2022-12-16T02:21:35;-5.90;99.90
20147;DHT22;10234;50.856;15.716;2022-12-16T02:24:44;-5.90;99.90
20147;DHT22;10234;50.856;15.716;2022-12-16T02:27:38;-5.90;99.90
20147;DHT22;10234;50.856;15.716;2022-12-16T02:30:22;-5.90;99.90
20147;DHT22;10234;50.856;15.716;2022-12-16T02:32:57;-5.70;99.90
20147;DHT22;10234;50.856;15.716;2022-12-16T02:35:34;-5.90;99.90
20147;DHT22;10234;50.856;15.716;2022-12-16T02:38:11;-5.70;99.90
20147;DHT22;10234;50.856;15.716;2022-12-16T02:40:43;-5.50;99.90
20147;DHT22;10234;50.856;15.716;2022-12-16T02:43:16;-5.90;99.90
20147;DHT22;10234;50.856;15.716;2022-12-16T02:45:46;-5.90;99.90
20147;DHT22;10234;50.856;15.716;2022-12-16T02:48:14;-5.60;99.90
20147;DHT22;10234;50.856;15.716;2022-12-16T02:50:44;-5.80;99.90
20147;DHT22;10234;50.856;15.716;2022-12-16T02:55:49;-5.80;99.90
20147;DHT22;10234;50.856;15.716;2022-12-16T02:58:24;-6.00;99.90
20147;DHT22;10234;50.856;15.716;2022-12-16T03:01:01;-5.80;99.90
20147;DHT22;10234;50.856;15.716;2022-12-16T03:03:36;-6.00;99.90
20147;DHT22;10234;50.856;15.716;2022-12-16T03:06:05;-5.60;99.90
20147;DHT22;10234;50.856;15.716;2022-12-16T03:08:34;-5.80;99.90
20147;DHT22;10234;50.856;15.716;2022-12-16T03:11:05;-5.80;99.90
20147;DHT22;10234;50.856;15.716;2022-12-16T03:13:37;-5.60;99.90
20147;DHT22;10234;50.856;15.716;2022-12-16T03:16:08;-5.80;99.90
20147;DHT22;10234;50.856;15.716;2022-12-16T03:18:38;-6.20;99.90
20147;DHT22;10234;50.856;15.716;2022-12-16T03:21:07;-5.60;99.90
20147;DHT22;10234;50.856;15.716;2022-12-16T03:23:38;-5.80;99.90
20147;DHT22;10234;50.856;15.716;2022-12-16T03:26:09;-5.90;99.90
20147;DHT22;10234;50.856;15.716;2022-12-16T03:28:43;-5.50;99.90
20147;DHT22;10234;50.856;15.716;2022-12-16T03:31:18;-6.00;99.90
20147;DHT22;10234;50.856;15.716;2022-12-16T03:33:49;-5.70;99.90
20147;DHT22;10234;50.856;15.716;2022-12-16T03:36:20;-5.70;99.90
20147;DHT22;10234;50.856;15.716;2022-12-16T03:38:49;-5.70;99.90
20147;DHT22;10234;50.856;15.716;2022-12-16T03:41:18;-5.70;99.90
20147;DHT22;10234;50.856;15.716;2022-12-16T03:46:15;-5.70;99.90
20147;DHT22;10234;50.856;15.716;2022-12-16T03:48:47;-5.70;99.90
20147;DHT22;10234;50.856;15.716;2022-12-16T03:51:14;-5.40;99.90
20147;DHT22;10234;50.856;15.716;2022-12-16T03:53:41;-5.70;99.90
20147;DHT22;10234;50.856;15.716;2022-12-16T03:56:08;-5.30;99.90
20147;DHT22;10234;50.856;15.716;2022-12-16T04:01:04;-5.70;99.90
20147;DHT22;10234;50.856;15.716;2022-12-16T04:03:33;-5.60;99.90
20147;DHT22;10234;50.856;15.716;2022-12-16T04:06:00;-5.70;99.90
20147;DHT22;10234;50.856;15.716;2022-12-16T04:08:28;-5.70;99.90
20147;DHT22;10234;50.856;15.716;2022-12-16T04:13:40;-5.30;99.90
20147;DHT22;10234;50.856;15.716;2022-12-16T04:16:25;-5.70;99.90
20147;DHT22;10234;50.856;15.716;2022-12-16T04:19:17;-5.60;99.90
20147;DHT22;10234;50.856;15.716;2022-12-16T04:22:02;-5.50;99.90
20147;DHT22;10234;50.856;15.716;2022-12-16T04:38:21;-5.10;99.90
20147;DHT22;10234;50.856;15.716;2022-12-16T04:41:05;-5.70;99.90
20147;DHT22;10234;50.856;15.716;2022-12-16T04:43:50;-5.30;99.90
20147;DHT22;10234;50.856;15.716;2022-12-16T04:46:34;-5.20;99.90
20147;DHT22;10234;50.856;15.716;2022-12-16T04:49:18;-5.50;99.90
20147;DHT22;10234;50.856;15.716;2022-12-16T04:52:04;-5.20;99.90
20147;DHT22;10234;50.856;15.716;2022-12-16T04:57:33;-5.20;99.90
20147;DHT22;10234;50.856;15.716;2022-12-16T05:00:18;-4.90;99.90
20147;DHT22;10234;50.856;15.716;2022-12-16T05:08:34;-4.20;99.90
20147;DHT22;10234;50.856;15.716;2022-12-16T05:11:18;-4.10;99.90
20147;DHT22;10234;50.856;15.716;2022-12-16T05:14:02;-4.50;99.90
20147;DHT22;10234;50.856;15.716;2022-12-16T05:16:47;-3.50;99.90
20147;DHT22;10234;50.856;15.716;2022-12-16T05:25:02;-4.40;99.90
20147;DHT22;10234;50.856;15.716;2022-12-16T05:30:34;-4.60;99.90
20147;DHT22;10234;50.856;15.716;2022-12-16T05:36:04;-3.90;99.90
20147;DHT22;10234;50.856;15.716;2022-12-16T05:38:59;-4.50;99.90
20147;DHT22;10234;50.856;15.716;2022-12-16T05:41:45;-4.20;99.90
20147;DHT22;10234;50.856;15.716;2022-12-16T05:44:30;-4.40;99.90
20147;DHT22;10234;50.856;15.716;2022-12-16T05:49:58;-4.00;99.90
20147;DHT22;10234;50.856;15.716;2022-12-16T05:52:48;-4.40;99.90
20147;DHT22;10234;50.856;15.716;2022-12-16T05:55:28;-4.20;99.90
20147;DHT22;10234;50.856;15.716;2022-12-16T06:03:43;-4.00;99.90
20147;DHT22;10234;50.856;15.716;2022-12-16T06:06:27;-4.10;99.90
20147;DHT22;10234;50.856;15.716;2022-12-16T06:14:42;-4.10;99.90
20147;DHT22;10234;50.856;15.716;2022-12-16T06:17:26;-4.50;99.90
20147;DHT22;10234;50.856;15.716;2022-12-16T06:22:55;-4.50;99.90
20147;DHT22;10234;50.856;15.716;2022-12-16T06:25:40;-4.70;99.90
20147;DHT22;10234;50.856;15.716;2022-12-16T06:28:24;-4.60;99.90
20147;DHT22;10234;50.856;15.716;2022-12-16T06:31:10;-4.40;99.90
20147;DHT22;10234;50.856;15.716;2022-12-16T06:36:39;-4.60;99.90
20147;DHT22;10234;50.856;15.716;2022-12-16T06:39:24;-4.70;99.90
20147;DHT22;10234;50.856;15.716;2022-12-16T06:44:53;-4.20;99.90
20147;DHT22;10234;50.856;15.716;2022-12-16T06:47:39;-4.40;99.90
20147;DHT22;10234;50.856;15.716;2022-12-16T06:50:25;-4.20;99.90
20147;DHT22;10234;50.856;15.716;2022-12-16T06:55:53;-4.70;99.90
20147;DHT22;10234;50.856;15.716;2022-12-16T07:01:22;-4.80;99.90
20147;DHT22;10234;50.856;15.716;2022-12-16T07:06:52;-4.50;99.90
20147;DHT22;10234;50.856;15.716;2022-12-16T07:12:21;-4.40;99.90
20147;DHT22;10234;50.856;15.716;2022-12-16T07:15:06;-4.70;99.90
20147;DHT22;10234;50.856;15.716;2022-12-16T07:17:50;-4.60;99.90
20147;DHT22;10234;50.856;15.716;2022-12-16T07:20:36;-4.30;99.90
20147;DHT22;10234;50.856;15.716;2022-12-16T07:26:07;-4.30;99.90
20147;DHT22;10234;50.856;15.716;2022-12-16T07:31:41;-3.80;99.90
20147;DHT22;10234;50.856;15.716;2022-12-16T07:37:16;-4.20;99.90
20147;DHT22;10234;50.856;15.716;2022-12-16T07:56:44;-4.00;99.90
20147;DHT22;10234;50.856;15.716;2022-12-16T07:59:28;-3.90;99.90
20147;DHT22;10234;50.856;15.716;2022-12-16T08:02:13;-4.20;99.90
20147;DHT22;10234;50.856;15.716;2022-12-16T08:04:57;-4.10;99.90
20147;DHT22;10234;50.856;15.716;2022-12-16T08:10:27;-3.90;99.90
20147;DHT22;10234;50.856;15.716;2022-12-16T08:24:10;-3.50;99.90
20147;DHT22;10234;50.856;15.716;2022-12-16T08:26:55;-3.80;99.90
20147;DHT22;10234;50.856;15.716;2022-12-16T08:37:54;-4.60;99.90
20147;DHT22;10234;50.856;15.716;2022-12-16T08:40:38;-4.00;99.90
20147;DHT22;10234;50.856;15.716;2022-12-16T08:51:39;-3.60;99.90
20147;DHT22;10234;50.856;15.716;2022-12-16T08:54:23;-3.20;99.90
20147;DHT22;10234;50.856;15.716;2022-12-16T08:57:07;-3.50;99.90
20147;DHT22;10234;50.856;15.716;2022-12-16T08:59:53;-3.30;99.90
20147;DHT22;10234;50.856;15.716;2022-12-16T09:10:51;-3.30;99.90
20147;DHT22;10234;50.856;15.716;2022-12-16T09:13:35;-2.80;99.90
20147;DHT22;10234;50.856;15.716;2022-12-16T09:16:20;-2.90;99.90
20147;DHT22;10234;50.856;15.716;2022-12-16T09:19:05;-2.90;99.90
20147;DHT22;10234;50.856;15.716;2022-12-16T09:27:18;-2.70;99.90
20147;DHT22;10234;50.856;15.716;2022-12-16T09:30:03;-2.40;99.90
20147;DHT22;10234;50.856;15.716;2022-12-16T09:38:18;-2.10;99.90
20147;DHT22;10234;50.856;15.716;2022-12-16T09:41:19;-1.80;99.90
20147;DHT22;10234;50.856;15.716;2022-12-16T09:44:11;-2.10;99.90
20147;DHT22;10234;50.856;15.716;2022-12-16T09:47:03;-2.20;99.90
20147;DHT22;10234;50.856;15.716;2022-12-16T09:49:52;-2.00;99.90
20147;DHT22;10234;50.856;15.716;2022-12-16T09:52:41;-1.90;99.90
20147;DHT22;10234;50.856;15.716;2022-12-16T09:55:29;-1.80;99.90
20147;DHT22;10234;50.856;15.716;2022-12-16T09:58:17;-2.10;99.90
20147;DHT22;10234;50.856;15.716;2022-12-16T10:01:04;-2.00;99.90
20147;DHT22;10234;50.856;15.716;2022-12-16T10:06:39;-2.30;99.90
20147;DHT22;10234;50.856;15.716;2022-12-16T10:09:30;-2.40;99.90
20147;DHT22;10234;50.856;15.716;2022-12-16T10:12:29;-2.30;99.90
20147;DHT22;10234;50.856;15.716;2022-12-16T10:15:30;-2.20;99.90
20147;DHT22;10234;50.856;15.716;2022-12-16T10:18:25;-2.10;99.90
20147;DHT22;10234;50.856;15.716;2022-12-16T10:21:16;-2.10;99.90
20147;DHT22;10234;50.856;15.716;2022-12-16T10:24:10;-1.70;99.90
20147;DHT22;10234;50.856;15.716;2022-12-16T10:27:03;-1.60;99.90
20147;DHT22;10234;50.856;15.716;2022-12-16T10:32:39;-1.50;99.90
20147;DHT22;10234;50.856;15.716;2022-12-16T10:35:27;-1.70;99.90
20147;DHT22;10234;50.856;15.716;2022-12-16T10:38:19;-1.50;99.90
20147;DHT22;10234;50.856;15.716;2022-12-16T10:43:51;-1.80;99.90
20147;DHT22;10234;50.856;15.716;2022-12-16T10:46:37;-1.70;99.90
20147;DHT22;10234;50.856;15.716;2022-12-16T10:52:11;-1.80;99.90
20147;DHT22;10234;50.856;15.716;2022-12-16T10:54:59;-1.80;99.90
20147;DHT22;10234;50.856;15.716;2022-12-16T10:57:55;-2.00;99.90
20147;DHT22;10234;50.856;15.716;2022-12-16T11:00:44;-1.90;99.90
20147;DHT22;10234;50.856;15.716;2022-12-16T11:03:30;-1.90;99.90
20147;DHT22;10234;50.856;15.716;2022-12-16T11:06:19;-2.00;99.90
20147;DHT22;10234;50.856;15.716;2022-12-16T11:09:21;-1.30;99.90
20147;DHT22;10234;50.856;15.716;2022-12-16T11:12:21;-2.00;99.90
20147;DHT22;10234;50.856;15.716;2022-12-16T11:15:24;-2.00;99.90
20147;DHT22;10234;50.856;15.716;2022-12-16T11:18:11;-2.20;99.90
20147;DHT22;10234;50.856;15.716;2022-12-16T11:21:11;-2.40;99.90
20147;DHT22;10234;50.856;15.716;2022-12-16T11:24:10;-1.90;99.90
20147;DHT22;10234;50.856;15.716;2022-12-16T11:26:56;-1.50;99.90
20147;DHT22;10234;50.856;15.716;2022-12-16T11:29:51;-2.20;99.90
20147;DHT22;10234;50.856;15.716;2022-12-16T11:32:39;-2.20;99.90
20147;DHT22;10234;50.856;15.716;2022-12-16T11:35:29;-1.90;99.90
20147;DHT22;10234;50.856;15.716;2022-12-16T11:38:20;-0.80;99.90
20147;DHT22;10234;50.856;15.716;2022-12-16T11:41:06;-2.10;99.90
20147;DHT22;10234;50.856;15.716;2022-12-16T11:44:01;-2.00;99.90
20147;DHT22;10234;50.856;15.716;2022-12-16T11:46:46;-2.00;99.90
20147;DHT22;10234;50.856;15.716;2022-12-16T11:49:32;-1.70;99.90
20147;DHT22;10234;50.856;15.716;2022-12-16T11:52:18;-2.00;99.90
20147;DHT22;10234;50.856;15.716;2022-12-16T11:55:12;-2.20;99.90
20147;DHT22;10234;50.856;15.716;2022-12-16T11:58:04;-2.00;99.90
20147;DHT22;10234;50.856;15.716;2022-12-16T12:00:58;-2.10;99.90
20147;DHT22;10234;50.856;15.716;2022-12-16T12:03:46;-2.00;99.90
20147;DHT22;10234;50.856;15.716;2022-12-16T12:06:43;-1.80;99.90
20147;DHT22;10234;50.856;15.716;2022-12-16T12:09:32;-2.00;99.90
20147;DHT22;10234;50.856;15.716;2022-12-16T12:12:26;-1.60;99.90
20147;DHT22;10234;50.856;15.716;2022-12-16T12:15:18;-1.70;99.90
20147;DHT22;10234;50.856;15.716;2022-12-16T12:18:10;-1.60;99.90
20147;DHT22;10234;50.856;15.716;2022-12-16T12:21:06;-1.70;99.90
20147;DHT22;10234;50.856;15.716;2022-12-16T12:23:58;-1.90;99.90
20147;DHT22;10234;50.856;15.716;2022-12-16T12:26:52;-2.10;99.90
20147;DHT22;10234;50.856;15.716;2022-12-16T12:29:48;-1.80;99.90
20147;DHT22;10234;50.856;15.716;2022-12-16T12:32:43;-1.90;99.90
20147;DHT22;10234;50.856;15.716;2022-12-16T12:35:41;-2.00;99.90
20147;DHT22;10234;50.856;15.716;2022-12-16T12:38:33;-2.30;99.90
20147;DHT22;10234;50.856;15.716;2022-12-16T12:41:25;-1.90;99.90
20147;DHT22;10234;50.856;15.716;2022-12-16T12:44:17;-2.40;99.90
20147;DHT22;10234;50.856;15.716;2022-12-16T12:47:05;-2.00;99.90
20147;DHT22;10234;50.856;15.716;2022-12-16T12:49:55;-2.20;99.90
20147;DHT22;10234;50.856;15.716;2022-12-16T12:53:00;-2.20;99.90
20147;DHT22;10234;50.856;15.716;2022-12-16T12:55:52;-2.10;99.90
20147;DHT22;10234;50.856;15.716;2022-12-16T12:58:42;-2.30;99.90
20147;DHT22;10234;50.856;15.716;2022-12-16T13:01:30;-2.30;99.90
20147;DHT22;10234;50.856;15.716;2022-12-16T13:04:18;-2.30;99.90
20147;DHT22;10234;50.856;15.716;2022-12-16T13:07:03;-2.20;99.90
20147;DHT22;10234;50.856;15.716;2022-12-16T13:10:13;-2.50;99.90
20147;DHT22;10234;50.856;15.716;2022-12-16T13:13:29;-2.50;99.90
20147;DHT22;10234;50.856;15.716;2022-12-16T13:19:44;-2.70;99.90
20147;DHT22;10234;50.856;15.716;2022-12-16T13:22:36;-3.00;99.90
20147;DHT22;10234;50.856;15.716;2022-12-16T13:25:49;-2.70;99.90
20147;DHT22;10234;50.856;15.716;2022-12-16T13:28:35;-2.10;99.90
20147;DHT22;10234;50.856;15.716;2022-12-16T13:31:20;-2.80;99.90
20147;DHT22;10234;50.856;15.716;2022-12-16T13:34:06;-2.70;99.90
20147;DHT22;10234;50.856;15.716;2022-12-16T13:37:05;-3.10;99.90
20147;DHT22;10234;50.856;15.716;2022-12-16T13:40:00;-3.10;99.90
20147;DHT22;10234;50.856;15.716;2022-12-16T13:42:53;-2.80;99.90
20147;DHT22;10234;50.856;15.716;2022-12-16T13:45:42;-2.90;99.90
20147;DHT22;10234;50.856;15.716;2022-12-16T13:48:36;-3.10;99.90
20147;DHT22;10234;50.856;15.716;2022-12-16T13:55:06;-3.30;99.90
20147;DHT22;10234;50.856;15.716;2022-12-16T13:58:01;-3.30;99.90
20147;DHT22;10234;50.856;15.716;2022-12-16T14:00:54;-3.20;99.90
20147;DHT22;10234;50.856;15.716;2022-12-16T14:03:43;-3.20;99.90
20147;DHT22;10234;50.856;15.716;2022-12-16T14:06:29;-3.40;99.90
20147;DHT22;10234;50.856;15.716;2022-12-16T14:09:28;-3.40;99.90
20147;DHT22;10234;50.856;15.716;2022-12-16T14:12:23;-3.50;99.90
20147;DHT22;10234;50.856;15.716;2022-12-16T14:18:06;-3.50;99.90
20147;DHT22;10234;50.856;15.716;2022-12-16T14:23:48;-3.70;99.90
20147;DHT22;10234;50.856;15.716;2022-12-16T14:26:35;-3.60;99.90
20147;DHT22;10234;50.856;15.716;2022-12-16T14:29:24;-3.60;99.90
20147;DHT22;10234;50.856;15.716;2022-12-16T14:35:11;-3.60;99.90
20147;DHT22;10234;50.856;15.716;2022-12-16T14:37:56;-3.70;99.90
20147;DHT22;10234;50.856;15.716;2022-12-16T14:40:41;-3.80;99.90
20147;DHT22;10234;50.856;15.716;2022-12-16T14:43:25;-3.90;99.90
20147;DHT22;10234;50.856;15.716;2022-12-16T14:46:24;-3.90;99.90
20147;DHT22;10234;50.856;15.716;2022-12-16T14:49:17;-3.80;99.90
20147;DHT22;10234;50.856;15.716;2022-12-16T14:52:15;-3.60;99.90
20147;DHT22;10234;50.856;15.716;2022-12-16T14:55:03;-3.70;99.90
20147;DHT22;10234;50.856;15.716;2022-12-16T14:58:01;-3.60;99.90
20147;DHT22;10234;50.856;15.716;2022-12-16T15:00:46;-3.80;99.90
20147;DHT22;10234;50.856;15.716;2022-12-16T15:03:36;-3.30;99.90
20147;DHT22;10234;50.856;15.716;2022-12-16T15:06:24;-4.10;99.90
20147;DHT22;10234;50.856;15.716;2022-12-16T15:09:18;-4.20;99.90
20147;DHT22;10234;50.856;15.716;2022-12-16T15:12:06;-4.10;99.90
20147;DHT22;10234;50.856;15.716;2022-12-16T15:14:53;-3.80;99.90
20147;DHT22;10234;50.856;15.716;2022-12-16T15:17:44;-5.40;99.90
20147;DHT22;10234;50.856;15.716;2022-12-16T15:20:35;-3.90;99.90
20147;DHT22;10234;50.856;15.716;2022-12-16T15:23:22;-4.00;99.90
20147;DHT22;10234;50.856;15.716;2022-12-16T15:26:08;-4.20;99.90
20147;DHT22;10234;50.856;15.716;2022-12-16T15:28:52;-4.00;99.90
20147;DHT22;10234;50.856;15.716;2022-12-16T15:31:38;-4.00;99.90
20147;DHT22;10234;50.856;15.716;2022-12-16T15:34:26;-4.50;99.90
20147;DHT22;10234;50.856;15.716;2022-12-16T15:37:17;-4.10;99.90
20147;DHT22;10234;50.856;15.716;2022-12-16T15:40:02;-4.10;99.90
20147;DHT22;10234;50.856;15.716;2022-12-16T15:42:50;-4.10;99.90
20147;DHT22;10234;50.856;15.716;2022-12-16T15:45:35;-4.10;99.90
20147;DHT22;10234;50.856;15.716;2022-12-16T15:48:22;-4.10;99.90
20147;DHT22;10234;50.856;15.716;2022-12-16T15:51:20;-4.00;99.90
20147;DHT22;10234;50.856;15.716;2022-12-16T15:54:14;-3.80;99.90
20147;DHT22;10234;50.856;15.716;2022-12-16T15:56:59;-4.10;99.90
20147;DHT22;10234;50.856;15.716;2022-12-16T15:59:57;-4.00;99.90
20147;DHT22;10234;50.856;15.716;2022-12-16T16:05:31;-3.70;99.90
20147;DHT22;10234;50.856;15.716;2022-12-16T16:13:57;-4.40;99.90
20147;DHT22;10234;50.856;15.716;2022-12-16T16:22:13;-4.30;99.90
20147;DHT22;10234;50.856;15.716;2022-12-16T16:38:43;-3.50;99.90
20147;DHT22;10234;50.856;15.716;2022-12-16T16:49:45;-4.10;99.90
20147;DHT22;10234;50.856;15.716;2022-12-16T16:52:31;-4.00;99.90
20147;DHT22;10234;50.856;15.716;2022-12-16T16:55:16;-4.00;99.90
20147;DHT22;10234;50.856;15.716;2022-12-16T16:58:04;-4.10;99.90
20147;DHT22;10234;50.856;15.716;2022-12-16T17:00:51;-3.60;99.90
20147;DHT22;10234;50.856;15.716;2022-12-16T17:09:04;-4.50;99.90
20147;DHT22;10234;50.856;15.716;2022-12-16T17:17:20;-4.10;99.90
20147;DHT22;10234;50.856;15.716;2022-12-16T17:20:13;-4.10;99.90
20147;DHT22;10234;50.856;15.716;2022-12-16T17:25:42;-3.80;99.90
20147;DHT22;10234;50.856;15.716;2022-12-16T17:31:11;-3.60;99.90
20147;DHT22;10234;50.856;15.716;2022-12-16T17:33:57;-4.40;99.90
20147;DHT22;10234;50.856;15.716;2022-12-16T17:39:26;-4.00;99.90
20147;DHT22;10234;50.856;15.716;2022-12-16T17:45:09;-4.10;99.90
20147;DHT22;10234;50.856;15.716;2022-12-16T17:59:07;-3.20;99.90
20147;DHT22;10234;50.856;15.716;2022-12-16T18:04:48;-4.20;99.90
20147;DHT22;10234;50.856;15.716;2022-12-16T18:10:18;-4.40;99.90
20147;DHT22;10234;50.856;15.716;2022-12-16T18:13:02;-4.00;99.90
20147;DHT22;10234;50.856;15.716;2022-12-16T18:18:34;-4.00;99.90
20147;DHT22;10234;50.856;15.716;2022-12-16T18:26:59;-4.30;99.90
20147;DHT22;10234;50.856;15.716;2022-12-16T18:35:13;-4.00;99.90
20147;DHT22;10234;50.856;15.716;2022-12-16T18:40:43;-4.50;99.90
20147;DHT22;10234;50.856;15.716;2022-12-16T18:43:27;-4.30;99.90
20147;DHT22;10234;50.856;15.716;2022-12-16T18:59:55;-4.20;99.90
20147;DHT22;10234;50.856;15.716;2022-12-16T19:10:55;-3.70;99.90
20147;DHT22;10234;50.856;15.716;2022-12-16T19:13:44;-4.10;99.90
20147;DHT22;10234;50.856;15.716;2022-12-16T19:16:28;-3.80;99.90
20147;DHT22;10234;50.856;15.716;2022-12-16T19:21:57;-3.80;99.90
20147;DHT22;10234;50.856;15.716;2022-12-16T19:24:41;-4.10;99.90
20147;DHT22;10234;50.856;15.716;2022-12-16T19:30:12;-4.10;99.90
20147;DHT22;10234;50.856;15.716;2022-12-16T19:52:18;-4.20;99.90
20147;DHT22;10234;50.856;15.716;2022-12-16T20:00:32;-4.40;99.90
20147;DHT22;10234;50.856;15.716;2022-12-16T20:03:18;-4.50;99.90
20147;DHT22;10234;50.856;15.716;2022-12-16T20:06:04;-4.20;99.90
20147;DHT22;10234;50.856;15.716;2022-12-16T20:19:50;-4.10;99.90
20147;DHT22;10234;50.856;15.716;2022-12-16T20:47:23;-4.10;99.90
20147;DHT22;10234;50.856;15.716;2022-12-16T20:52:53;-4.50;99.90
20147;DHT22;10234;50.856;15.716;2022-12-16T20:55:38;-4.40;99.90
20147;DHT22;10234;50.856;15.716;2022-12-16T21:01:06;-4.20;99.90
20147;DHT22;10234;50.856;15.716;2022-12-16T21:03:53;-4.10;99.90
20147;DHT22;10234;50.856;15.716;2022-12-16T21:06:37;-4.50;99.90
20147;DHT22;10234;50.856;15.716;2022-12-16T21:09:23;-4.40;99.90
20147;DHT22;10234;50.856;15.716;2022-12-16T21:20:22;-4.60;99.90
20147;DHT22;10234;50.856;15.716;2022-12-16T21:23:11;-4.40;99.90
20147;DHT22;10234;50.856;15.716;2022-12-16T21:25:59;-4.40;99.90
20147;DHT22;10234;50.856;15.716;2022-12-16T21:28:43;-4.30;99.90
20147;DHT22;10234;50.856;15.716;2022-12-16T21:36:56;-4.50;99.90
20147;DHT22;10234;50.856;15.716;2022-12-16T21:42:26;-4.50;99.90
20147;DHT22;10234;50.856;15.716;2022-12-16T22:01:40;-4.10;99.90
20147;DHT22;10234;50.856;15.716;2022-12-16T22:04:24;-4.20;99.90
20147;DHT22;10234;50.856;15.716;2022-12-16T22:07:08;-4.30;99.90
20147;DHT22;10234;50.856;15.716;2022-12-16T22:09:53;-4.40;99.90
20147;DHT22;10234;50.856;15.716;2022-12-16T22:15:23;-4.50;99.90
20147;DHT22;10234;50.856;15.716;2022-12-16T22:20:58;-4.40;99.90
20147;DHT22;10234;50.856;15.716;2022-12-16T22:31:59;-4.20;99.90
20147;DHT22;10234;50.856;15.716;2022-12-16T22:34:43;-4.50;99.90
20147;DHT22;10234;50.856;15.716;2022-12-16T22:37:28;-4.30;99.90
20147;DHT22;10234;50.856;15.716;2022-12-16T22:42:57;-4.80;99.90
20147;DHT22;10234;50.856;15.716;2022-12-16T22:45:59;-4.70;99.90
20147;DHT22;10234;50.856;15.716;2022-12-16T22:51:31;-4.70;99.90
20147;DHT22;10234;50.856;15.716;2022-12-16T22:54:14;-4.60;99.90
20147;DHT22;10234;50.856;15.716;2022-12-16T22:56:59;-4.40;99.90
20147;DHT22;10234;50.856;15.716;2022-12-16T23:08:06;-4.20;99.90
20147;DHT22;10234;50.856;15.716;2022-12-16T23:10:54;-4.70;99.90
20147;DHT22;10234;50.856;15.716;2022-12-16T23:13:39;-4.40;99.90
20147;DHT22;10234;50.856;15.716;2022-12-16T23:16:23;-4.60;99.90
20147;DHT22;10234;50.856;15.716;2022-12-16T23:19:08;-4.50;99.90
20147;DHT22;10234;50.856;15.716;2022-12-16T23:21:54;-4.30;99.90
20147;DHT22;10234;50.856;15.716;2022-12-16T23:24:49;-4.60;99.90
20147;DHT22;10234;50.856;15.716;2022-12-16T23:27:33;-4.30;99.90
20147;DHT22;10234;50.856;15.716;2022-12-16T23:30:18;-4.60;99.90
20147;DHT22;10234;50.856;15.716;2022-12-16T23:33:02;-4.50;99.90
20147;DHT22;10234;50.856;15.716;2022-12-16T23:35:47;-4.40;99.90
20147;DHT22;10234;50.856;15.716;2022-12-16T23:38:32;-4.50;99.90
20147;DHT22;10234;50.856;15.716;2022-12-16T23:41:17;-4.50;99.90
20147;DHT22;10234;50.856;15.716;2022-12-16T23:44:01;-4.30;99.90
20147;DHT22;10234;50.856;15.716;2022-12-16T23:46:45;-4.70;99.90
20147;DHT22;10234;50.856;15.716;2022-12-16T23:49:30;-3.70;99.90
20147;DHT22;10234;50.856;15.716;2022-12-16T23:55:00;-4.60;99.90
